createdAt,value
2018-09-19T00:00:38.362Z,14.98
2018-09-19T00:01:38.355Z,14.95
2018-09-19T00:02:38.357Z,14.98
2018-09-19T00:03:38.329Z,14.95
2018-09-19T00:04:38.322Z,14.94
2018-09-19T00:05:38.314Z,14.92
2018-09-19T00:06:38.308Z,14.96
2018-09-19T00:07:38.289Z,14.89
2018-09-19T00:08:38.285Z,14.95
2018-09-19T00:09:38.270Z,15.01
2018-09-19T00:10:38.263Z,14.96
2018-09-19T00:11:38.252Z,14.92
2018-09-19T00:12:38.233Z,15.02
2018-09-19T00:13:38.230Z,14.95
2018-09-19T00:14:38.218Z,14.88
2018-09-19T00:15:38.207Z,14.92
2018-09-19T00:16:38.199Z,14.94
2018-09-19T00:17:38.189Z,14.92
2018-09-19T00:18:38.180Z,14.89
2018-09-19T00:19:38.165Z,14.96
2018-09-19T00:20:38.159Z,14.92
2018-09-19T00:21:38.149Z,14.92
2018-09-19T00:22:38.138Z,14.86
2018-09-19T00:23:38.125Z,14.99
2018-09-19T00:24:38.122Z,14.95
2018-09-19T00:25:38.110Z,14.81
2018-09-19T00:26:38.099Z,14.81
2018-09-19T00:27:38.082Z,14.81
2018-09-19T00:28:38.077Z,14.81
2018-09-19T00:29:38.063Z,14.83
2018-09-19T00:30:38.052Z,14.80
2018-09-19T00:31:38.042Z,14.88
2018-09-19T00:32:38.035Z,14.92
2018-09-19T00:33:38.026Z,14.81
2018-09-19T00:34:38.015Z,14.88
2018-09-19T00:35:38.007Z,14.81
2018-09-19T00:36:38.017Z,14.75
2018-09-19T00:37:37.978Z,14.81
2018-09-19T00:38:37.970Z,14.78
2018-09-19T00:39:37.967Z,14.83
2018-09-19T00:40:37.953Z,14.78
2018-09-19T00:41:37.938Z,14.80
2018-09-19T00:42:37.988Z,14.77
2018-09-19T00:43:37.922Z,14.78
2018-09-19T00:44:37.912Z,14.77
2018-09-19T00:45:37.945Z,14.75
2018-09-19T00:46:37.890Z,14.84
2018-09-19T00:47:37.881Z,14.78
2018-09-19T00:48:37.872Z,14.84
2018-09-19T00:49:37.856Z,14.77
2018-09-19T00:50:37.849Z,14.69
2018-09-19T00:51:37.844Z,14.69
2018-09-19T00:52:37.830Z,14.64
2018-09-19T00:53:37.815Z,14.65
2018-09-19T00:54:37.809Z,14.61
2018-09-19T00:55:37.801Z,14.61
2018-09-19T00:56:37.794Z,14.60
2018-09-19T00:57:37.785Z,14.60
2018-09-19T00:58:37.768Z,14.46
2018-09-19T00:59:37.756Z,14.40
2018-09-19T01:00:37.748Z,14.46
2018-09-19T01:01:37.734Z,14.43
2018-09-19T01:02:37.730Z,14.45
2018-09-19T01:03:37.714Z,14.40
2018-09-19T01:04:37.712Z,14.32
2018-09-19T01:05:37.696Z,14.43
2018-09-19T01:06:37.677Z,14.40
2018-09-19T01:07:37.674Z,14.40
2018-09-19T01:08:37.662Z,14.43
2018-09-19T01:09:37.652Z,14.40
2018-09-19T01:10:37.639Z,14.40
2018-09-19T01:11:37.628Z,14.43
2018-09-19T01:12:37.623Z,14.45
2018-09-19T01:13:37.610Z,14.39
2018-09-19T01:14:37.598Z,14.43
2018-09-19T01:15:37.588Z,14.43
2018-09-19T01:16:37.584Z,14.39
2018-09-19T01:17:37.565Z,14.29
2018-09-19T01:18:37.557Z,14.35
2018-09-19T01:19:37.552Z,14.35
2018-09-19T01:20:37.536Z,14.40
2018-09-19T01:21:37.532Z,14.40
2018-09-19T01:22:37.516Z,14.35
2018-09-19T01:23:37.510Z,14.39
2018-09-19T01:24:37.492Z,14.35
2018-09-19T01:25:37.489Z,14.32
2018-09-19T01:26:37.474Z,14.37
2018-09-19T01:27:37.463Z,14.37
2018-09-19T01:28:37.459Z,14.35
2018-09-19T01:29:37.444Z,14.35
2018-09-19T01:30:37.433Z,14.39
2018-09-19T01:31:37.425Z,14.42
2018-09-19T01:32:37.410Z,14.36
2018-09-19T01:33:37.405Z,14.32
2018-09-19T01:34:37.396Z,14.37
2018-09-19T01:35:37.383Z,14.36
2018-09-19T01:36:37.369Z,14.36
2018-09-19T01:37:37.362Z,14.37
2018-09-19T01:38:37.352Z,14.24
2018-09-19T01:39:37.343Z,14.36
2018-09-19T01:40:37.331Z,14.28
2018-09-19T01:41:37.317Z,14.33
2018-09-19T01:42:37.306Z,14.29
2018-09-19T01:43:37.304Z,14.27
2018-09-19T01:44:37.285Z,14.27
2018-09-19T01:45:37.273Z,14.24
2018-09-19T01:46:37.270Z,14.27
2018-09-19T01:47:37.252Z,14.35
2018-09-19T01:48:37.244Z,14.29
2018-09-19T01:49:37.235Z,14.22
2018-09-19T01:50:37.222Z,14.27
2018-09-19T01:51:37.217Z,14.35
2018-09-19T01:52:37.202Z,14.29
2018-09-19T01:53:37.192Z,14.36
2018-09-19T01:54:37.182Z,14.29
2018-09-19T01:55:37.174Z,14.33
2018-09-19T01:56:37.160Z,14.42
2018-09-19T01:57:37.149Z,14.43
2018-09-19T01:58:37.139Z,14.36
2018-09-19T01:59:37.132Z,14.35
2018-09-19T02:00:37.122Z,14.32
2018-09-19T02:01:37.100Z,14.36
2018-09-19T02:02:37.095Z,14.29
2018-09-19T02:03:37.081Z,14.29
2018-09-19T02:04:37.080Z,14.24
2018-09-19T02:05:37.062Z,14.20
2018-09-19T02:06:37.054Z,14.20
2018-09-19T02:07:37.049Z,14.17
2018-09-19T02:08:37.034Z,14.02
2018-09-19T02:09:37.021Z,14.09
2018-09-19T02:10:37.007Z,14.02
2018-09-19T02:11:37.003Z,14.03
2018-09-19T02:12:37.000Z,14.03
2018-09-19T02:13:36.987Z,14.00
2018-09-19T02:14:36.971Z,14.00
2018-09-19T02:15:36.960Z,14.02
2018-09-19T02:16:36.980Z,14.02
2018-09-19T02:17:36.936Z,14.07
2018-09-19T02:18:36.932Z,14.07
2018-09-19T02:19:36.918Z,14.06
2018-09-19T02:20:36.911Z,14.03
2018-09-19T02:21:36.893Z,14.04
2018-09-19T02:22:36.891Z,14.02
2018-09-19T02:23:36.880Z,14.02
2018-09-19T02:24:36.867Z,14.07
2018-09-19T02:25:36.852Z,14.10
2018-09-19T02:26:36.845Z,14.15
2018-09-19T02:27:36.833Z,14.06
2018-09-19T02:28:36.846Z,14.06
2018-09-19T02:29:36.809Z,14.06
2018-09-19T02:30:36.795Z,14.14
2018-09-19T02:31:36.792Z,14.21
2018-09-19T02:32:36.780Z,14.18
2018-09-19T02:33:36.767Z,14.20
2018-09-19T02:34:36.756Z,14.28
2018-09-19T02:35:36.753Z,14.20
2018-09-19T02:36:36.732Z,14.25
2018-09-19T02:37:36.735Z,14.22
2018-09-19T02:38:36.716Z,14.20
2018-09-19T02:39:36.703Z,14.24
2018-09-19T02:40:36.698Z,14.22
2018-09-19T02:41:36.684Z,14.21
2018-09-19T02:42:36.671Z,14.17
2018-09-19T02:43:36.717Z,14.03
2018-09-19T02:44:36.682Z,14.07
2018-09-19T02:45:36.645Z,14.04
2018-09-19T02:46:36.631Z,14.03
2018-09-19T02:47:36.629Z,13.96
2018-09-19T02:48:36.612Z,13.92
2018-09-19T02:49:36.600Z,13.88
2018-09-19T02:50:36.585Z,13.87
2018-09-19T02:51:36.579Z,13.79
2018-09-19T02:52:36.566Z,13.87
2018-09-19T02:53:36.556Z,13.84
2018-09-19T02:54:36.544Z,13.87
2018-09-19T02:55:36.533Z,13.85
2018-09-19T02:56:36.523Z,13.89
2018-09-19T02:57:36.546Z,13.88
2018-09-19T02:58:36.513Z,13.89
2018-09-19T02:59:36.490Z,13.88
2018-09-19T03:00:36.484Z,13.85
2018-09-19T03:01:36.468Z,13.92
2018-09-19T03:02:36.458Z,13.92
2018-09-19T03:03:36.450Z,13.89
2018-09-19T03:04:36.441Z,13.87
2018-09-19T03:05:36.424Z,13.89
2018-09-19T03:06:36.421Z,13.82
2018-09-19T03:07:36.415Z,13.87
2018-09-19T03:08:36.399Z,13.78
2018-09-19T03:09:36.386Z,13.77
2018-09-19T03:10:36.376Z,13.78
2018-09-19T03:11:36.365Z,13.82
2018-09-19T03:12:36.346Z,13.75
2018-09-19T03:13:36.348Z,13.78
2018-09-19T03:14:36.328Z,13.78
2018-09-19T03:15:36.320Z,13.82
2018-09-19T03:16:36.304Z,13.91
2018-09-19T03:17:36.445Z,13.77
2018-09-19T03:18:36.289Z,13.79
2018-09-19T03:19:36.280Z,13.75
2018-09-19T03:20:36.272Z,13.78
2018-09-19T03:21:36.261Z,13.79
2018-09-19T03:22:36.250Z,13.73
2018-09-19T03:23:36.239Z,13.77
2018-09-19T03:24:36.221Z,13.77
2018-09-19T03:25:36.216Z,13.75
2018-09-19T03:26:36.204Z,13.75
2018-09-19T03:27:36.203Z,13.79
2018-09-19T03:28:36.185Z,13.82
2018-09-19T03:29:36.172Z,13.73
2018-09-19T03:30:36.168Z,13.89
2018-09-19T03:31:36.146Z,13.77
2018-09-19T03:32:36.139Z,13.82
2018-09-19T03:33:36.131Z,13.82
2018-09-19T03:34:36.117Z,13.64
2018-09-19T03:35:36.218Z,13.71
2018-09-19T03:36:36.101Z,13.63
2018-09-19T03:37:36.084Z,13.67
2018-09-19T03:38:36.076Z,13.63
2018-09-19T03:39:36.065Z,13.64
2018-09-19T03:40:36.056Z,13.59
2018-09-19T03:41:36.046Z,13.52
2018-09-19T03:42:36.038Z,13.63
2018-09-19T03:43:36.023Z,13.66
2018-09-19T03:44:36.015Z,13.63
2018-09-19T03:45:35.992Z,13.59
2018-09-19T03:46:35.986Z,13.59
2018-09-19T03:47:35.980Z,13.62
2018-09-19T03:48:35.964Z,13.54
2018-09-19T03:49:35.960Z,13.62
2018-09-19T03:50:35.946Z,13.71
2018-09-19T03:51:35.940Z,13.64
2018-09-19T03:52:35.923Z,13.63
2018-09-19T03:53:35.909Z,13.64
2018-09-19T03:54:35.912Z,13.62
2018-09-19T03:55:35.897Z,13.62
2018-09-19T03:56:35.879Z,13.55
2018-09-19T03:57:35.873Z,13.59
2018-09-19T03:58:35.863Z,13.60
2018-09-19T03:59:35.849Z,13.60
2018-09-19T04:00:35.842Z,13.66
2018-09-19T04:01:35.829Z,13.66
2018-09-19T04:02:35.819Z,13.69
2018-09-19T04:03:35.803Z,13.59
2018-09-19T04:04:35.791Z,13.60
2018-09-19T04:05:35.784Z,13.62
2018-09-19T04:06:35.774Z,13.64
2018-09-19T04:07:35.764Z,13.63
2018-09-19T04:08:35.753Z,13.62
2018-09-19T04:09:35.740Z,13.60
2018-09-19T04:10:35.741Z,13.63
2018-09-19T04:11:35.716Z,13.63
2018-09-19T04:12:35.707Z,13.63
2018-09-19T04:13:35.701Z,13.63
2018-09-19T04:14:35.686Z,13.66
2018-09-19T04:15:35.678Z,13.66
2018-09-19T04:16:35.670Z,13.66
2018-09-19T04:17:35.688Z,13.66
2018-09-19T04:18:35.640Z,13.49
2018-09-19T04:19:35.628Z,13.49
2018-09-19T04:20:35.626Z,13.54
2018-09-19T04:21:35.614Z,13.57
2018-09-19T04:22:35.601Z,13.51
2018-09-19T04:23:35.589Z,13.59
2018-09-19T04:24:35.582Z,13.59
2018-09-19T04:25:35.569Z,13.63
2018-09-19T04:26:35.554Z,13.63
2018-09-19T04:27:35.545Z,13.54
2018-09-19T04:28:35.534Z,13.48
2018-09-19T04:29:35.520Z,13.52
2018-09-19T04:30:35.517Z,13.52
2018-09-19T04:31:35.503Z,13.54
2018-09-19T04:32:35.499Z,13.54
2018-09-19T04:33:35.476Z,13.64
2018-09-19T04:34:35.475Z,13.49
2018-09-19T04:35:35.456Z,13.48
2018-09-19T04:36:35.448Z,13.59
2018-09-19T04:37:35.433Z,13.60
2018-09-19T04:38:35.432Z,13.54
2018-09-19T04:39:35.418Z,13.55
2018-09-19T04:40:35.407Z,13.54
2018-09-19T04:41:35.398Z,13.42
2018-09-19T04:42:35.380Z,13.49
2018-09-19T04:43:35.369Z,13.46
2018-09-19T04:44:35.362Z,13.44
2018-09-19T04:45:35.357Z,13.41
2018-09-19T04:46:35.345Z,13.45
2018-09-19T04:47:35.330Z,13.42
2018-09-19T04:48:35.320Z,13.52
2018-09-19T04:49:35.305Z,13.44
2018-09-19T04:50:35.294Z,13.44
2018-09-19T04:51:35.337Z,13.48
2018-09-19T04:52:35.272Z,13.38
2018-09-19T04:53:35.265Z,13.49
2018-09-19T04:54:35.253Z,13.41
2018-09-19T04:55:35.236Z,13.41
2018-09-19T04:56:35.231Z,13.45
2018-09-19T04:57:35.220Z,13.38
2018-09-19T04:58:35.218Z,13.42
2018-09-19T04:59:35.201Z,13.36
2018-09-19T05:00:35.190Z,13.38
2018-09-19T05:01:35.176Z,13.44
2018-09-19T05:02:35.196Z,13.49
2018-09-19T05:03:35.157Z,13.44
2018-09-19T05:04:35.145Z,13.49
2018-09-19T05:05:35.172Z,13.51
2018-09-19T05:06:35.119Z,13.57
2018-09-19T05:07:35.117Z,13.52
2018-09-19T05:08:35.109Z,13.49
2018-09-19T05:09:35.088Z,13.55
2018-09-19T05:10:35.080Z,13.54
2018-09-19T05:11:35.140Z,13.51
2018-09-19T05:12:35.061Z,13.49
2018-09-19T05:13:35.048Z,13.46
2018-09-19T05:14:35.038Z,13.46
2018-09-19T05:15:35.022Z,13.45
2018-09-19T05:16:35.011Z,13.46
2018-09-19T05:17:35.006Z,13.42
2018-09-19T05:18:34.991Z,13.38
2018-09-19T05:19:34.977Z,13.42
2018-09-19T05:20:34.977Z,13.32
2018-09-19T05:21:34.960Z,13.29
2018-09-19T05:22:34.951Z,13.29
2018-09-19T05:23:34.940Z,13.39
2018-09-19T05:24:34.931Z,13.36
2018-09-19T05:25:34.925Z,13.39
2018-09-19T05:26:34.908Z,13.41
2018-09-19T05:27:34.892Z,13.41
2018-09-19T05:28:34.882Z,13.32
2018-09-19T05:29:34.873Z,13.30
2018-09-19T05:30:34.918Z,13.36
2018-09-19T05:31:34.870Z,13.39
2018-09-19T05:32:34.834Z,13.36
2018-09-19T05:33:34.829Z,13.39
2018-09-19T05:34:34.820Z,13.48
2018-09-19T05:35:34.813Z,13.52
2018-09-19T05:36:34.792Z,13.49
2018-09-19T05:37:34.783Z,13.54
2018-09-19T05:38:34.770Z,13.49
2018-09-19T05:39:34.779Z,13.63
2018-09-19T05:40:34.754Z,13.54
2018-09-19T05:41:34.745Z,13.55
2018-09-19T05:42:34.729Z,13.60
2018-09-19T05:43:34.722Z,13.54
2018-09-19T05:44:34.708Z,13.63
2018-09-19T05:45:34.695Z,13.49
2018-09-19T05:46:34.770Z,13.52
2018-09-19T05:47:34.673Z,13.49
2018-09-19T05:48:34.669Z,13.49
2018-09-19T05:49:34.655Z,13.63
2018-09-19T05:50:34.642Z,13.59
2018-09-19T05:51:34.632Z,13.63
2018-09-19T05:52:34.623Z,13.64
2018-09-19T05:53:34.605Z,13.66
2018-09-19T05:54:34.648Z,13.60
2018-09-19T05:55:34.597Z,13.73
2018-09-19T05:56:34.576Z,13.73
2018-09-19T05:57:34.564Z,13.71
2018-09-19T05:58:34.555Z,13.77
2018-09-19T05:59:34.543Z,13.75
2018-09-19T06:00:34.537Z,13.79
2018-09-19T06:01:34.521Z,13.77
2018-09-19T06:02:34.512Z,13.92
2018-09-19T06:03:34.498Z,13.88
2018-09-19T06:04:34.489Z,13.91
2018-09-19T06:05:34.477Z,13.95
2018-09-19T06:06:34.509Z,13.97
2018-09-19T06:07:34.460Z,14.00
2018-09-19T06:08:34.449Z,14.07
2018-09-19T06:09:34.432Z,14.04
2018-09-19T06:10:34.428Z,14.14
2018-09-19T06:11:34.521Z,14.15
2018-09-19T06:12:34.423Z,14.25
2018-09-19T06:13:34.402Z,14.24
2018-09-19T06:14:34.390Z,14.27
2018-09-19T06:15:34.366Z,14.32
2018-09-19T06:16:34.358Z,14.33
2018-09-19T06:17:34.356Z,14.39
2018-09-19T06:18:34.335Z,14.36
2018-09-19T06:19:34.335Z,14.27
2018-09-19T06:20:34.317Z,14.37
2018-09-19T06:21:34.301Z,14.42
2018-09-19T06:22:34.295Z,14.36
2018-09-19T06:23:34.286Z,14.35
2018-09-19T06:24:34.272Z,14.40
2018-09-19T06:25:34.280Z,14.43
2018-09-19T06:26:34.252Z,14.45
2018-09-19T06:27:34.244Z,14.42
2018-09-19T06:28:34.232Z,14.43
2018-09-19T06:29:34.222Z,14.43
2018-09-19T06:30:34.206Z,14.50
2018-09-19T06:31:34.195Z,14.58
2018-09-19T06:32:34.190Z,14.54
2018-09-19T06:33:34.257Z,14.57
2018-09-19T06:34:34.164Z,14.51
2018-09-19T06:35:34.170Z,14.50
2018-09-19T06:36:34.147Z,14.52
2018-09-19T06:37:34.142Z,14.45
2018-09-19T06:38:34.140Z,14.57
2018-09-19T06:39:34.113Z,14.52
2018-09-19T06:40:34.212Z,14.61
2018-09-19T06:41:34.093Z,14.62
2018-09-19T06:42:34.095Z,14.73
2018-09-19T06:43:34.071Z,14.75
2018-09-19T06:44:34.066Z,14.75
2018-09-19T06:45:34.064Z,14.78
2018-09-19T06:46:34.040Z,14.84
2018-09-19T06:47:34.028Z,14.94
2018-09-19T06:48:34.030Z,14.94
2018-09-19T06:49:34.004Z,14.98
2018-09-19T06:50:34.006Z,14.98
2018-09-19T06:51:33.993Z,15.16
2018-09-19T06:52:34.035Z,15.14
2018-09-19T06:53:33.967Z,15.20
2018-09-19T06:54:33.955Z,15.35
2018-09-19T06:55:33.946Z,15.43
2018-09-19T06:56:33.939Z,15.54
2018-09-19T06:57:33.924Z,15.53
2018-09-19T06:58:33.913Z,15.59
2018-09-19T06:59:33.940Z,15.71
2018-09-19T07:00:33.896Z,15.80
2018-09-19T07:01:33.890Z,15.96
2018-09-19T07:02:33.875Z,16.02
2018-09-19T07:03:33.868Z,16.07
2018-09-19T07:04:33.857Z,16.11
2018-09-19T07:05:33.847Z,16.20
2018-09-19T07:06:33.834Z,16.30
2018-09-19T07:07:33.823Z,16.34
2018-09-19T07:08:33.815Z,16.34
2018-09-19T07:09:33.805Z,16.48
2018-09-19T07:10:33.811Z,16.56
2018-09-19T07:11:33.784Z,16.61
2018-09-19T07:12:33.773Z,16.73
2018-09-19T07:13:33.768Z,16.71
2018-09-19T07:14:33.752Z,16.78
2018-09-19T07:15:33.745Z,16.82
2018-09-19T07:16:33.737Z,16.98
2018-09-19T07:17:33.728Z,17.00
2018-09-19T07:18:33.716Z,16.98
2018-09-19T07:19:33.705Z,17.08
2018-09-19T07:20:33.697Z,17.08
2018-09-19T07:21:33.685Z,17.15
2018-09-19T07:22:33.683Z,17.15
2018-09-19T07:23:33.680Z,17.12
2018-09-19T07:24:33.656Z,17.19
2018-09-19T07:25:33.652Z,17.22
2018-09-19T07:26:33.649Z,17.28
2018-09-19T07:27:33.631Z,17.30
2018-09-19T07:28:33.621Z,17.37
2018-09-19T07:29:33.609Z,17.41
2018-09-19T07:30:33.603Z,17.51
2018-09-19T07:31:33.590Z,17.63
2018-09-19T07:32:33.580Z,17.71
2018-09-19T07:33:33.575Z,17.58
2018-09-19T07:34:33.560Z,17.44
2018-09-19T07:35:33.553Z,17.54
2018-09-19T07:36:33.546Z,17.51
2018-09-19T07:37:33.540Z,17.43
2018-09-19T07:38:33.528Z,17.34
2018-09-19T07:39:33.521Z,17.36
2018-09-19T07:40:33.507Z,17.43
2018-09-19T07:41:33.494Z,17.33
2018-09-19T07:42:33.534Z,17.23
2018-09-19T07:43:33.479Z,17.31
2018-09-19T07:44:33.472Z,17.52
2018-09-19T07:45:33.467Z,17.44
2018-09-19T07:46:33.501Z,17.56
2018-09-19T07:47:33.445Z,17.72
2018-09-19T07:48:33.435Z,17.70
2018-09-19T07:49:33.425Z,17.68
2018-09-19T07:50:33.415Z,17.72
2018-09-19T07:51:33.404Z,17.64
2018-09-19T07:52:33.401Z,17.59
2018-09-19T07:53:33.386Z,17.56
2018-09-19T07:54:33.433Z,17.44
2018-09-19T07:55:33.375Z,17.34
2018-09-19T07:56:33.368Z,17.37
2018-09-19T07:57:33.352Z,17.30
2018-09-19T07:58:33.345Z,17.33
2018-09-19T07:59:33.338Z,17.52
2018-09-19T08:00:33.391Z,17.70
2018-09-19T08:01:33.325Z,17.74
2018-09-19T08:02:33.308Z,17.81
2018-09-19T08:03:33.299Z,17.90
2018-09-19T08:04:33.297Z,17.90
2018-09-19T08:05:33.281Z,17.92
2018-09-19T08:06:33.270Z,17.89
2018-09-19T08:07:33.260Z,17.87
2018-09-19T08:08:33.254Z,17.81
2018-09-19T08:09:33.247Z,17.95
2018-09-19T08:10:33.243Z,17.92
2018-09-19T08:11:33.226Z,18.08
2018-09-19T08:12:33.218Z,18.08
2018-09-19T08:13:33.205Z,17.93
2018-09-19T08:14:33.204Z,18.11
2018-09-19T08:15:33.196Z,18.05
2018-09-19T08:16:33.187Z,18.05
2018-09-19T08:17:33.171Z,18.25
2018-09-19T08:18:33.163Z,18.27
2018-09-19T08:19:33.150Z,18.45
2018-09-19T08:20:33.143Z,18.54
2018-09-19T08:21:33.149Z,18.58
2018-09-19T08:22:33.210Z,18.52
2018-09-19T08:23:33.126Z,18.55
2018-09-19T08:24:33.118Z,18.36
2018-09-19T08:25:33.137Z,18.25
2018-09-19T08:26:33.094Z,18.07
2018-09-19T08:27:33.116Z,18.07
2018-09-19T08:28:33.076Z,18.03
2018-09-19T08:29:33.069Z,17.95
2018-09-19T08:30:33.059Z,17.90
2018-09-19T08:31:33.049Z,17.90
2018-09-19T08:32:33.049Z,17.84
2018-09-19T08:33:33.034Z,17.78
2018-09-19T08:34:33.030Z,17.81
2018-09-19T08:35:33.015Z,17.72
2018-09-19T08:36:33.008Z,17.71
2018-09-19T08:37:32.999Z,17.78
2018-09-19T08:38:32.987Z,17.72
2018-09-19T08:39:32.984Z,17.75
2018-09-19T08:40:32.969Z,17.75
2018-09-19T08:41:32.973Z,17.71
2018-09-19T08:42:32.953Z,17.74
2018-09-19T08:43:32.943Z,17.74
2018-09-19T08:44:32.934Z,17.74
2018-09-19T08:45:32.964Z,17.75
2018-09-19T08:46:32.922Z,17.78
2018-09-19T08:47:32.910Z,17.77
2018-09-19T08:48:32.904Z,17.81
2018-09-19T08:49:32.898Z,17.75
2018-09-19T08:50:32.949Z,17.82
2018-09-19T08:51:32.873Z,17.81
2018-09-19T08:52:32.869Z,18.07
2018-09-19T08:53:32.857Z,18.11
2018-09-19T08:54:32.848Z,18.23
2018-09-19T08:55:32.835Z,18.29
2018-09-19T08:56:32.833Z,18.54
2018-09-19T08:57:32.818Z,18.73
2018-09-19T08:58:32.813Z,18.80
2018-09-19T08:59:32.802Z,18.88
2018-09-19T09:00:32.799Z,18.88
2018-09-19T09:01:32.789Z,19.10
2018-09-19T09:02:32.777Z,19.28
2018-09-19T09:03:32.768Z,19.28
2018-09-19T09:04:32.761Z,19.25
2018-09-19T09:05:32.753Z,19.14
2018-09-19T09:06:32.742Z,19.18
2018-09-19T09:07:32.735Z,19.10
2018-09-19T09:08:32.722Z,19.06
2018-09-19T09:09:32.719Z,18.90
2018-09-19T09:10:32.717Z,19.07
2018-09-19T09:11:32.705Z,19.00
2018-09-19T09:12:32.728Z,18.98
2018-09-19T09:13:32.691Z,18.92
2018-09-19T09:14:32.689Z,18.87
2018-09-19T09:15:32.665Z,18.90
2018-09-19T09:16:32.665Z,18.88
2018-09-19T09:17:32.661Z,18.84
2018-09-19T09:18:32.646Z,18.87
2018-09-19T09:19:32.640Z,19.00
2018-09-19T09:20:32.642Z,19.31
2018-09-19T09:21:32.620Z,19.43
2018-09-19T09:22:32.612Z,19.77
2018-09-19T09:23:32.607Z,19.76
2018-09-19T09:24:32.599Z,19.62
2018-09-19T09:25:32.591Z,19.65
2018-09-19T09:26:32.580Z,19.51
2018-09-19T09:27:32.568Z,19.44
2018-09-19T09:28:32.563Z,19.25
2018-09-19T09:29:32.552Z,19.16
2018-09-19T09:30:32.541Z,19.14
2018-09-19T09:31:32.539Z,19.04
2018-09-19T09:32:32.534Z,19.04
2018-09-19T09:33:32.529Z,19.08
2018-09-19T09:34:32.510Z,19.06
2018-09-19T09:35:32.501Z,19.02
2018-09-19T09:36:32.500Z,19.04
2018-09-19T09:37:32.485Z,19.07
2018-09-19T09:38:32.486Z,18.99
2018-09-19T09:39:32.472Z,19.06
2018-09-19T09:40:32.534Z,19.07
2018-09-19T09:41:32.452Z,19.18
2018-09-19T09:42:32.446Z,19.31
2018-09-19T09:43:32.493Z,19.43
2018-09-19T09:44:32.428Z,19.47
2018-09-19T09:45:32.427Z,19.44
2018-09-19T09:46:32.417Z,19.41
2018-09-19T09:47:32.408Z,19.46
2018-09-19T09:48:32.397Z,19.43
2018-09-19T09:49:32.391Z,19.39
2018-09-19T09:50:32.385Z,19.33
2018-09-19T09:51:32.380Z,19.25
2018-09-19T09:52:32.372Z,19.33
2018-09-19T09:54:32.352Z,19.36
2018-09-19T09:55:32.341Z,19.28
2018-09-19T09:56:32.333Z,19.29
2018-09-19T09:57:32.323Z,19.26
2018-09-19T09:58:32.320Z,19.13
2018-09-19T09:59:32.311Z,19.16
2018-09-19T10:00:32.299Z,19.18
2018-09-19T10:01:32.293Z,19.19
2018-09-19T10:02:32.285Z,19.29
2018-09-19T10:03:32.276Z,19.46
2018-09-19T10:04:32.274Z,19.76
2018-09-19T10:05:32.264Z,19.83
2018-09-19T10:06:32.289Z,19.83
2018-09-19T10:07:32.245Z,19.91
2018-09-19T10:08:32.235Z,20.11
2018-09-19T10:09:32.225Z,20.20
2018-09-19T10:10:32.222Z,20.38
2018-09-19T10:11:32.217Z,20.64
2018-09-19T10:12:32.207Z,20.76
2018-09-19T10:13:32.210Z,20.80
2018-09-19T10:14:32.188Z,21.01
2018-09-19T10:15:32.182Z,21.13
2018-09-19T10:16:32.176Z,21.31
2018-09-19T10:17:32.169Z,21.49
2018-09-19T10:18:32.160Z,21.56
2018-09-19T10:19:32.153Z,21.72
2018-09-19T10:20:32.151Z,21.83
2018-09-19T10:21:32.135Z,21.86
2018-09-19T10:22:32.127Z,21.90
2018-09-19T10:23:32.123Z,22.03
2018-09-19T10:24:32.115Z,22.06
2018-09-19T10:25:32.105Z,22.24
2018-09-19T10:26:32.099Z,22.36
2018-09-19T10:27:32.095Z,22.46
2018-09-19T10:28:32.082Z,22.47
2018-09-19T10:29:32.133Z,22.54
2018-09-19T10:30:32.078Z,22.40
2018-09-19T10:31:32.061Z,22.30
2018-09-19T10:32:32.059Z,22.15
2018-09-19T10:33:32.052Z,22.00
2018-09-19T10:34:32.042Z,21.96
2018-09-19T10:35:32.097Z,21.86
2018-09-19T10:36:32.029Z,21.64
2018-09-19T10:37:32.017Z,21.35
2018-09-19T10:38:32.013Z,21.13
2018-09-19T10:39:32.005Z,21.10
2018-09-19T10:40:31.998Z,20.99
2018-09-19T10:41:31.991Z,21.03
2018-09-19T10:42:31.983Z,20.95
2018-09-19T10:43:31.976Z,20.82
2018-09-19T10:44:31.976Z,20.79
2018-09-19T10:45:31.962Z,20.76
2018-09-19T10:46:31.961Z,20.64
2018-09-19T10:47:31.950Z,20.59
2018-09-19T10:48:31.950Z,20.54
2018-09-19T10:49:31.983Z,20.61
2018-09-19T10:50:31.933Z,20.54
2018-09-19T10:51:31.921Z,20.59
2018-09-19T10:52:31.917Z,20.54
2018-09-19T10:53:31.905Z,20.69
2018-09-19T10:54:31.894Z,20.72
2018-09-19T10:55:31.892Z,20.72
2018-09-19T10:56:31.886Z,20.74
2018-09-19T10:57:31.877Z,20.73
2018-09-19T10:58:31.867Z,20.70
2018-09-19T10:59:31.864Z,20.76
2018-09-19T11:00:31.862Z,20.74
2018-09-19T11:01:31.848Z,20.72
2018-09-19T11:02:31.842Z,20.77
2018-09-19T11:03:31.836Z,20.84
2018-09-19T11:04:31.833Z,20.80
2018-09-19T11:05:31.824Z,20.76
2018-09-19T11:06:31.817Z,20.84
2018-09-19T11:07:31.813Z,20.84
2018-09-19T11:08:31.799Z,20.85
2018-09-19T11:09:31.791Z,20.82
2018-09-19T11:10:31.780Z,20.89
2018-09-19T11:11:31.783Z,20.80
2018-09-19T11:12:31.769Z,20.89
2018-09-19T11:13:31.759Z,20.77
2018-09-19T11:14:31.759Z,20.72
2018-09-19T11:15:31.743Z,20.73
2018-09-19T11:16:31.775Z,20.72
2018-09-19T11:17:31.734Z,20.72
2018-09-19T11:18:31.725Z,20.69
2018-09-19T11:19:31.717Z,20.70
2018-09-19T11:20:31.713Z,20.73
2018-09-19T11:21:31.699Z,20.76
2018-09-19T11:22:31.693Z,20.73
2018-09-19T11:23:31.682Z,20.84
2018-09-19T11:24:31.682Z,20.87
2018-09-19T11:25:31.672Z,20.94
2018-09-19T11:26:31.677Z,21.17
2018-09-19T11:27:31.652Z,21.46
2018-09-19T11:28:31.646Z,21.69
2018-09-19T11:29:31.641Z,21.98
2018-09-19T11:30:31.635Z,22.09
2018-09-19T11:31:31.625Z,22.20
2018-09-19T11:32:31.626Z,22.33
2018-09-19T11:33:31.661Z,22.46
2018-09-19T11:34:31.614Z,22.65
2018-09-19T11:35:31.606Z,22.73
2018-09-19T11:36:31.596Z,22.83
2018-09-19T11:37:31.585Z,23.01
2018-09-19T11:38:31.586Z,23.10
2018-09-19T11:39:31.573Z,23.19
2018-09-19T11:40:31.565Z,23.33
2018-09-19T11:41:31.561Z,23.38
2018-09-19T11:42:31.550Z,23.47
2018-09-19T11:43:31.555Z,23.53
2018-09-19T11:44:31.538Z,23.78
2018-09-19T11:45:31.542Z,23.80
2018-09-19T11:46:31.535Z,23.88
2018-09-19T11:47:31.521Z,23.93
2018-09-19T11:48:31.531Z,23.97
2018-09-19T11:49:31.511Z,24.08
2018-09-19T11:50:31.498Z,24.21
2018-09-19T11:51:31.490Z,24.35
2018-09-19T11:52:31.491Z,24.43
2018-09-19T11:53:31.485Z,24.58
2018-09-19T11:54:31.480Z,24.67
2018-09-19T11:55:31.475Z,24.68
2018-09-19T11:56:31.471Z,24.62
2018-09-19T11:57:31.460Z,24.65
2018-09-19T11:58:31.454Z,24.85
2018-09-19T11:59:31.449Z,24.84
2018-09-19T12:00:31.445Z,24.98
2018-09-19T12:01:31.436Z,24.85
2018-09-19T12:02:31.428Z,24.93
2018-09-19T12:03:31.429Z,24.91
2018-09-19T12:04:31.421Z,25.00
2018-09-19T12:05:31.413Z,25.13
2018-09-19T12:06:31.407Z,25.23
2018-09-19T12:07:31.406Z,25.15
2018-09-19T12:08:31.402Z,25.15
2018-09-19T12:09:31.385Z,25.20
2018-09-19T12:10:31.387Z,25.25
2018-09-19T12:11:31.387Z,25.43
2018-09-19T12:12:31.376Z,25.45
2018-09-19T12:13:31.374Z,25.47
2018-09-19T12:14:31.377Z,25.62
2018-09-19T12:15:31.362Z,25.67
2018-09-19T12:16:31.355Z,25.62
2018-09-19T12:17:31.357Z,25.61
2018-09-19T12:18:31.345Z,25.62
2018-09-19T12:19:31.412Z,25.51
2018-09-19T12:20:31.339Z,25.60
2018-09-19T12:21:31.328Z,25.58
2018-09-19T12:22:31.320Z,25.64
2018-09-19T12:23:31.325Z,25.43
2018-09-19T12:24:31.319Z,25.47
2018-09-19T12:25:31.312Z,25.47
2018-09-19T12:26:31.339Z,25.47
2018-09-19T12:27:31.299Z,25.45
2018-09-19T12:28:31.296Z,25.47
2018-09-19T12:29:31.289Z,25.51
2018-09-19T12:30:31.283Z,25.52
2018-09-19T12:31:31.279Z,25.55
2018-09-19T12:32:31.276Z,25.62
2018-09-19T12:33:31.274Z,25.65
2018-09-19T12:34:31.264Z,25.70
2018-09-19T12:35:31.258Z,25.75
2018-09-19T12:36:31.255Z,25.73
2018-09-19T12:37:31.252Z,25.83
2018-09-19T12:38:31.248Z,25.73
2018-09-19T12:39:31.287Z,25.70
2018-09-19T12:40:31.240Z,25.83
2018-09-19T12:41:31.228Z,25.82
2018-09-19T12:42:31.228Z,25.83
2018-09-19T12:43:31.225Z,25.83
2018-09-19T12:44:31.228Z,25.85
2018-09-19T12:45:31.212Z,25.69
2018-09-19T12:46:31.209Z,25.46
2018-09-19T12:47:31.201Z,25.23
2018-09-19T12:48:31.203Z,24.96
2018-09-19T12:49:31.193Z,24.88
2018-09-19T12:50:31.191Z,24.73
2018-09-19T12:51:31.186Z,24.55
2018-09-19T12:52:31.178Z,24.77
2018-09-19T12:53:31.177Z,24.90